PWSweather.com
Personal Weather Stations
Station Observations
NORTHPOLE1
Tombur Subdivision, North Pole, AK 99705

Tombur SubdivisionNorth Pole, AK 99705

Lat: 64.774039, Lon: -147.284862

Elevation: 434

Station Type: Davis Vantage Pro 2

http://kl7ac.com

Latest ConditionsUpdated 9:15:00 AM AKST Friday, Jul 25, 2014
Currently Today's Max Today's Min Today's Average
Temperature 48.0°F8.9°C 49.7°F9.8°C 48.0°F8.9°C 49.0°F9.4°C
Dew Point 47.2°F8.4°C 49.2°F9.6°C 47.2°F8.4°C 48.4°F9.1°C
Winds 2.0 mph SW3.2 kmh SW 6.0 mph WSW9.7 kmh WSW - 1.9 mph 3.1 kmh
Wind Gusts 10.0 mph16.1 kmh 13.0 mph20.9 kmh - -
Humidity 97% 100% 97% 99%
Pressure 29.79 in1008.8 mb 29.79 in1008.8 mb 29.69 in1005.4 mb -
Precipitation - 0.06 in1.5 mm - -
Hour Temp Dew Point Humidity Winds Wind Gusts Pressure Precip Precip Rate Daily Precip Total
09:15 AM 48.0°F8.9°C 47.2°F8.4°C 97% 2.0 mph SW3.2 kmh SW 10.0 mph16.1 kmh 29.79 in1008.8 mb 0.00 in0.0 mm 0.00 in/hr0.0 mm/hr 0.06 in1.5 mm
09:10 AM 48.0°F8.9°C 47.2°F8.4°C 97% 3.0 mph SW4.8 kmh SW 10.0 mph16.1 kmh 29.79 in1008.8 mb 0.00 in0.0 mm 0.00 in/hr0.0 mm/hr 0.06 in1.5 mm
09:05 AM 48.0°F8.9°C 47.2°F8.4°C 97% 3.0 mph SW4.8 kmh SW 10.0 mph16.1 kmh 29.79 in1008.8 mb 0.00 in0.0 mm 0.00 in/hr0.0 mm/hr 0.06 in1.5 mm
09:00 AM 48.0°F8.9°C 47.2°F8.4°C 97% 3.0 mph SW4.8 kmh SW 10.0 mph16.1 kmh 29.79 in1008.8 mb 0.00 in0.0 mm 0.00 in/hr0.0 mm/hr 0.06 in1.5 mm
08:55 AM 48.1°F8.9°C 47.3°F8.5°C 97% 3.0 mph SW4.8 kmh SW 10.0 mph16.1 kmh 29.78 in1008.5 mb 0.00 in0.0 mm 0.00 in/hr0.0 mm/hr 0.06 in1.5 mm
08:50 AM 48.1°F8.9°C 47.3°F8.5°C 97% 3.0 mph SW4.8 kmh SW 10.0 mph16.1 kmh 29.78 in1008.5 mb 0.00 in0.0 mm 0.00 in/hr0.0 mm/hr 0.06 in1.5 mm
08:45 AM 48.1°F8.9°C 47.3°F8.5°C 97% 2.0 mph SW3.2 kmh SW 10.0 mph16.1 kmh 29.78 in1008.5 mb 0.00 in0.0 mm 0.00 in/hr0.0 mm/hr 0.06 in1.5 mm
08:40 AM 48.1°F8.9°C 47.3°F8.5°C 97% 2.0 mph WSW3.2 kmh WSW 10.0 mph16.1 kmh 29.78 in1008.5 mb 0.00 in0.0 mm 0.00 in/hr0.0 mm/hr 0.06 in1.5 mm
08:35 AM 48.0°F8.9°C 47.2°F8.4°C 97% 3.0 mph WSW4.8 kmh WSW 10.0 mph16.1 kmh 29.78 in1008.5 mb 0.00 in0.0 mm 0.00 in/hr0.0 mm/hr 0.06 in1.5 mm
08:30 AM 48.1°F8.9°C 47.3°F8.5°C 97% 3.0 mph WSW4.8 kmh WSW 9.0 mph14.5 kmh 29.78 in1008.5 mb 0.00 in0.0 mm 0.00 in/hr0.0 mm/hr 0.06 in1.5 mm
08:25 AM 48.1°F8.9°C 47.3°F8.5°C 97% 3.0 mph WSW4.8 kmh WSW 9.0 mph14.5 kmh 29.78 in1008.5 mb 0.00 in0.0 mm 0.00 in/hr0.0 mm/hr 0.06 in1.5 mm
08:20 AM 48.2°F9.0°C 47.4°F8.6°C 97% 3.0 mph WSW4.8 kmh WSW 9.0 mph14.5 kmh 29.77 in1008.1 mb 0.00 in0.0 mm 0.00 in/hr0.0 mm/hr 0.06 in1.5 mm
08:15 AM 48.3°F9.1°C 47.5°F8.6°C 97% 3.0 mph WSW4.8 kmh WSW 10.0 mph16.1 kmh 29.78 in1008.5 mb 0.00 in0.0 mm 0.00 in/hr0.0 mm/hr 0.06 in1.5 mm
08:10 AM 48.4°F9.1°C 47.6°F8.7°C 97% 4.0 mph WSW6.4 kmh WSW 11.0 mph17.7 kmh 29.77 in1008.1 mb 0.00 in0.0 mm 0.00 in/hr0.0 mm/hr 0.06 in1.5 mm
08:05 AM 48.4°F9.1°C 47.9°F8.8°C 100% 4.0 mph WSW6.4 kmh WSW 11.0 mph17.7 kmh 29.77 in1008.1 mb 0.00 in0.0 mm 0.00 in/hr0.0 mm/hr 0.06 in1.5 mm
08:00 AM 48.5°F9.2°C 48.0°F8.9°C 100% 4.0 mph WSW6.4 kmh WSW 11.0 mph17.7 kmh 29.77 in1008.1 mb 0.00 in0.0 mm 0.00 in/hr0.0 mm/hr 0.06 in1.5 mm
07:55 AM 48.5°F9.2°C 48.0°F8.9°C 100% 3.0 mph WSW4.8 kmh WSW 11.0 mph17.7 kmh 29.77 in1008.1 mb 0.00 in0.0 mm 0.00 in/hr0.0 mm/hr 0.06 in1.5 mm
07:50 AM 48.5°F9.2°C 48.0°F8.9°C 100% 3.0 mph WSW4.8 kmh WSW 11.0 mph17.7 kmh 29.76 in1007.8 mb 0.00 in0.0 mm 0.00 in/hr0.0 mm/hr 0.06 in1.5 mm
07:45 AM 48.5°F9.2°C 48.0°F8.9°C 100% 3.0 mph WSW4.8 kmh WSW 9.0 mph14.5 kmh 29.76 in1007.8 mb 0.00 in0.0 mm 0.00 in/hr0.0 mm/hr 0.06 in1.5 mm
07:40 AM 48.5°F9.2°C 48.0°F8.9°C 100% 3.0 mph SW4.8 kmh SW 10.0 mph16.1 kmh 29.76 in1007.8 mb 0.00 in0.0 mm 0.00 in/hr0.0 mm/hr 0.06 in1.5 mm
07:35 AM 48.5°F9.2°C 48.0°F8.9°C 100% 3.0 mph SW4.8 kmh SW 10.0 mph16.1 kmh 29.76 in1007.8 mb 0.00 in0.0 mm 0.00 in/hr0.0 mm/hr 0.06 in1.5 mm
07:30 AM 48.4°F9.1°C 47.9°F8.8°C 100% 3.0 mph SW4.8 kmh SW 7.0 mph11.3 kmh 29.76 in1007.8 mb 0.00 in0.0 mm 0.00 in/hr0.0 mm/hr 0.06 in1.5 mm
07:25 AM 48.4°F9.1°C 47.9°F8.8°C 100% 3.0 mph SW4.8 kmh SW 9.0 mph14.5 kmh 29.76 in1007.8 mb 0.00 in0.0 mm 0.00 in/hr0.0 mm/hr 0.06 in1.5 mm
07:20 AM 48.4°F9.1°C 47.9°F8.8°C 100% 3.0 mph SW4.8 kmh SW 9.0 mph14.5 kmh 29.76 in1007.8 mb 0.00 in0.0 mm 0.00 in/hr0.0 mm/hr 0.06 in1.5 mm
07:15 AM 48.4°F9.1°C 47.9°F8.8°C 100% 3.0 mph SW4.8 kmh SW 9.0 mph14.5 kmh 29.76 in1007.8 mb 0.00 in0.0 mm 0.00 in/hr0.0 mm/hr 0.06 in1.5 mm
07:10 AM 48.4°F9.1°C 47.9°F8.8°C 100% 2.0 mph WSW3.2 kmh WSW 5.0 mph8.0 kmh 29.75 in1007.5 mb 0.00 in0.0 mm 0.00 in/hr0.0 mm/hr 0.06 in1.5 mm
07:05 AM 48.4°F9.1°C 47.9°F8.8°C 100% 2.0 mph WSW3.2 kmh WSW 7.0 mph11.3 kmh 29.75 in1007.5 mb 0.00 in0.0 mm 0.00 in/hr0.0 mm/hr 0.06 in1.5 mm
07:00 AM 48.4°F9.1°C 47.9°F8.8°C 100% 2.0 mph SW3.2 kmh SW 7.0 mph11.3 kmh 29.75 in1007.5 mb 0.00 in0.0 mm 0.00 in/hr0.0 mm/hr 0.06 in1.5 mm
06:55 AM 48.6°F9.2°C 48.1°F8.9°C 100% 1.0 mph WSW1.6 kmh WSW 6.0 mph9.7 kmh 29.75 in1007.5 mb 0.00 in0.0 mm 0.00 in/hr0.0 mm/hr 0.06 in1.5 mm
06:50 AM 48.5°F9.2°C 48.0°F8.9°C 100% 2.0 mph WSW3.2 kmh WSW 9.0 mph14.5 kmh 29.75 in1007.5 mb 0.00 in0.0 mm 0.00 in/hr0.0 mm/hr 0.06 in1.5 mm
06:45 AM 48.5°F9.2°C 48.0°F8.9°C 100% 2.0 mph WSW3.2 kmh WSW 9.0 mph14.5 kmh 29.75 in1007.5 mb 0.00 in0.0 mm 0.00 in/hr0.0 mm/hr 0.06 in1.5 mm
06:40 AM 48.4°F9.1°C 47.9°F8.8°C 100% 3.0 mph WSW4.8 kmh WSW 9.0 mph14.5 kmh 29.75 in1007.5 mb 0.00 in0.0 mm 0.00 in/hr0.0 mm/hr 0.06 in1.5 mm
06:35 AM 48.3°F9.1°C 47.8°F8.8°C 100% 3.0 mph SW4.8 kmh SW 11.0 mph17.7 kmh 29.75 in1007.5 mb 0.00 in0.0 mm 0.00 in/hr0.0 mm/hr 0.06 in1.5 mm
06:30 AM 48.3°F9.1°C 47.8°F8.8°C 100% 3.0 mph SW4.8 kmh SW 11.0 mph17.7 kmh 29.74 in1007.1 mb 0.00 in0.0 mm 0.00 in/hr0.0 mm/hr 0.06 in1.5 mm
06:25 AM 48.3°F9.1°C 47.8°F8.8°C 100% 3.0 mph SW4.8 kmh SW 10.0 mph16.1 kmh 29.74 in1007.1 mb 0.00 in0.0 mm 0.00 in/hr0.0 mm/hr 0.06 in1.5 mm
06:20 AM 48.2°F9.0°C 47.7°F8.7°C 100% 3.0 mph WSW4.8 kmh WSW 10.0 mph16.1 kmh 29.74 in1007.1 mb 0.00 in0.0 mm 0.00 in/hr0.0 mm/hr 0.06 in1.5 mm
06:15 AM 48.2°F9.0°C 47.7°F8.7°C 100% 3.0 mph WSW4.8 kmh WSW 10.0 mph16.1 kmh 29.74 in1007.1 mb 0.00 in0.0 mm 0.00 in/hr0.0 mm/hr 0.06 in1.5 mm
06:10 AM 48.2°F9.0°C 47.7°F8.7°C 100% 2.0 mph WSW3.2 kmh WSW 10.0 mph16.1 kmh 29.74 in1007.1 mb 0.00 in0.0 mm 0.00 in/hr0.0 mm/hr 0.06 in1.5 mm
06:05 AM 48.2°F9.0°C 47.7°F8.7°C 100% 2.0 mph WSW3.2 kmh WSW 6.0 mph9.7 kmh 29.73 in1006.8 mb 0.00 in0.0 mm 0.00 in/hr0.0 mm/hr 0.06 in1.5 mm
06:00 AM 48.3°F9.1°C 47.8°F8.8°C 100% 3.0 mph WSW4.8 kmh WSW 11.0 mph17.7 kmh 29.73 in1006.8 mb 0.00 in0.0 mm 0.00 in/hr0.0 mm/hr 0.06 in1.5 mm
05:55 AM 48.3°F9.1°C 47.8°F8.8°C 100% 3.0 mph WSW4.8 kmh WSW 11.0 mph17.7 kmh 29.73 in1006.8 mb 0.00 in0.0 mm 0.00 in/hr0.0 mm/hr 0.06 in1.5 mm
05:50 AM 48.4°F9.1°C 47.9°F8.8°C 100% 4.0 mph WSW6.4 kmh WSW 10.0 mph16.1 kmh 29.73 in1006.8 mb 0.00 in0.0 mm 0.00 in/hr0.0 mm/hr 0.06 in1.5 mm
05:45 AM 48.4°F9.1°C 47.9°F8.8°C 100% 4.0 mph WSW6.4 kmh WSW 9.0 mph14.5 kmh 29.73 in1006.8 mb 0.00 in0.0 mm 0.00 in/hr0.0 mm/hr 0.06 in1.5 mm
05:40 AM 48.4°F9.1°C 47.9°F8.8°C 100% 2.0 mph WSW3.2 kmh WSW 9.0 mph14.5 kmh 29.73 in1006.8 mb 0.01 in0.3 mm 0.00 in/hr0.0 mm/hr 0.06 in1.5 mm
05:35 AM 48.4°F9.1°C 47.9°F8.8°C 100% 3.0 mph SW4.8 kmh SW 8.0 mph12.9 kmh 29.73 in1006.8 mb 0.02 in0.5 mm 0.00 in/hr0.0 mm/hr 0.06 in1.5 mm
05:30 AM 48.4°F9.1°C 47.9°F8.8°C 100% 4.0 mph WSW6.4 kmh WSW 10.0 mph16.1 kmh 29.73 in1006.8 mb 0.02 in0.5 mm 0.00 in/hr0.0 mm/hr 0.06 in1.5 mm
05:25 AM 48.5°F9.2°C 48.0°F8.9°C 100% 4.0 mph WSW6.4 kmh WSW 13.0 mph20.9 kmh 29.72 in1006.4 mb 0.03 in0.8 mm 0.00 in/hr0.0 mm/hr 0.06 in1.5 mm
05:20 AM 48.6°F9.2°C 48.1°F8.9°C 100% 5.0 mph WSW8.0 kmh WSW 13.0 mph20.9 kmh 29.72 in1006.4 mb 0.03 in0.8 mm 0.00 in/hr0.0 mm/hr 0.06 in1.5 mm
05:15 AM 48.7°F9.3°C 48.2°F9.0°C 100% 4.0 mph WSW6.4 kmh WSW 11.0 mph17.7 kmh 29.72 in1006.4 mb 0.03 in0.8 mm 0.00 in/hr0.0 mm/hr 0.06 in1.5 mm
05:10 AM 48.8°F9.3°C 48.3°F9.1°C 100% 4.0 mph WSW6.4 kmh WSW 11.0 mph17.7 kmh 29.72 in1006.4 mb 0.04 in1.0 mm 0.00 in/hr0.0 mm/hr 0.06 in1.5 mm
05:05 AM 49.0°F9.4°C 48.5°F9.2°C 100% 6.0 mph WSW9.7 kmh WSW 13.0 mph20.9 kmh 29.72 in1006.4 mb 0.04 in1.0 mm 0.00 in/hr0.0 mm/hr 0.06 in1.5 mm
05:00 AM 49.1°F9.5°C 48.6°F9.2°C 100% 5.0 mph WSW8.0 kmh WSW 13.0 mph20.9 kmh 29.72 in1006.4 mb 0.04 in1.0 mm 0.00 in/hr0.0 mm/hr 0.06 in1.5 mm
04:55 AM 49.2°F9.6°C 48.7°F9.3°C 100% 3.0 mph WSW4.8 kmh WSW 10.0 mph16.1 kmh 29.71 in1006.1 mb 0.04 in1.0 mm 0.00 in/hr0.0 mm/hr 0.06 in1.5 mm
04:50 AM 49.2°F9.6°C 48.7°F9.3°C 100% 4.0 mph WSW6.4 kmh WSW 11.0 mph17.7 kmh 29.71 in1006.1 mb 0.05 in1.3 mm 0.12 in/hr3.0 mm/hr 0.06 in1.5 mm
04:45 AM 49.3°F9.6°C 48.8°F9.3°C 100% 4.0 mph WSW6.4 kmh WSW 13.0 mph20.9 kmh 29.71 in1006.1 mb 0.04 in1.0 mm 0.00 in/hr0.0 mm/hr 0.05 in1.3 mm
04:40 AM 49.4°F9.7°C 48.9°F9.4°C 100% 4.0 mph WSW6.4 kmh WSW 13.0 mph20.9 kmh 29.71 in1006.1 mb 0.04 in1.0 mm 0.12 in/hr3.0 mm/hr 0.05 in1.3 mm
04:35 AM 49.4°F9.7°C 48.9°F9.4°C 100% 4.0 mph WSW6.4 kmh WSW 9.0 mph14.5 kmh 29.71 in1006.1 mb 0.03 in0.8 mm 0.00 in/hr0.0 mm/hr 0.04 in1.0 mm
04:30 AM 49.5°F9.7°C 49.0°F9.4°C 100% 3.0 mph WSW4.8 kmh WSW 9.0 mph14.5 kmh 29.71 in1006.1 mb 0.03 in0.8 mm 0.12 in/hr3.0 mm/hr 0.04 in1.0 mm
04:25 AM 49.5°F9.7°C 49.0°F9.4°C 100% 2.0 mph WSW3.2 kmh WSW 7.0 mph11.3 kmh 29.71 in1006.1 mb 0.02 in0.5 mm 0.00 in/hr0.0 mm/hr 0.03 in0.8 mm
04:20 AM 49.5°F9.7°C 49.0°F9.4°C 100% 2.0 mph WSW3.2 kmh WSW 7.0 mph11.3 kmh 29.71 in1006.1 mb 0.02 in0.5 mm 0.00 in/hr0.0 mm/hr 0.03 in0.8 mm
04:15 AM 49.5°F9.7°C 49.0°F9.4°C 100% 2.0 mph WSW3.2 kmh WSW 7.0 mph11.3 kmh 29.70 in1005.8 mb 0.02 in0.5 mm 0.12 in/hr3.0 mm/hr 0.03 in0.8 mm
04:10 AM 49.6°F9.8°C 49.1°F9.5°C 100% 2.0 mph WSW3.2 kmh WSW 6.0 mph9.7 kmh 29.70 in1005.8 mb 0.01 in0.3 mm 0.00 in/hr0.0 mm/hr 0.02 in0.5 mm
04:05 AM 49.6°F9.8°C 49.1°F9.5°C 100% 1.0 mph WSW1.6 kmh WSW 6.0 mph9.7 kmh 29.70 in1005.8 mb 0.01 in0.3 mm 0.00 in/hr0.0 mm/hr 0.02 in0.5 mm
04:00 AM 49.6°F9.8°C 49.1°F9.5°C 100% 2.0 mph WSW3.2 kmh WSW 6.0 mph9.7 kmh 29.70 in1005.8 mb 0.01 in0.3 mm 0.00 in/hr0.0 mm/hr 0.02 in0.5 mm
03:55 AM 49.6°F9.8°C 49.1°F9.5°C 100% 1.0 mph WSW1.6 kmh WSW 6.0 mph9.7 kmh 29.70 in1005.8 mb 0.01 in0.3 mm 0.12 in/hr3.0 mm/hr 0.02 in0.5 mm
03:50 AM 49.7°F9.8°C 49.2°F9.6°C 100% 1.0 mph WSW1.6 kmh WSW 4.0 mph6.4 kmh 29.70 in1005.8 mb 0.00 in0.0 mm 0.00 in/hr0.0 mm/hr 0.01 in0.3 mm
03:45 AM 49.7°F9.8°C 49.2°F9.6°C 100% 1.0 mph SW1.6 kmh SW 4.0 mph6.4 kmh 29.70 in1005.8 mb 0.00 in0.0 mm 0.00 in/hr0.0 mm/hr 0.01 in0.3 mm
03:40 AM 49.7°F9.8°C 49.2°F9.6°C 100% 1.0 mph SW1.6 kmh SW 6.0 mph9.7 kmh 29.70 in1005.8 mb 0.00 in0.0 mm 0.00 in/hr0.0 mm/hr 0.01 in0.3 mm
03:35 AM 49.7°F9.8°C 49.2°F9.6°C 100% 2.0 mph SW3.2 kmh SW 6.0 mph9.7 kmh 29.70 in1005.8 mb 0.00 in0.0 mm 0.00 in/hr0.0 mm/hr 0.01 in0.3 mm
03:30 AM 49.7°F9.8°C 49.2°F9.6°C 100% 2.0 mph SSW3.2 kmh SSW 6.0 mph9.7 kmh 29.70 in1005.8 mb 0.00 in0.0 mm 0.00 in/hr0.0 mm/hr 0.01 in0.3 mm
03:25 AM 49.7°F9.8°C 49.2°F9.6°C 100% 1.0 mph SSW1.6 kmh SSW 6.0 mph9.7 kmh 29.70 in1005.8 mb 0.00 in0.0 mm 0.00 in/hr0.0 mm/hr 0.01 in0.3 mm
03:20 AM 49.7°F9.8°C 49.2°F9.6°C 100% 1.0 mph S1.6 kmh S 3.0 mph4.8 kmh 29.70 in1005.8 mb 0.00 in0.0 mm 0.00 in/hr0.0 mm/hr 0.01 in0.3 mm
03:15 AM 49.7°F9.8°C 49.2°F9.6°C 100% 1.0 mph S1.6 kmh S 3.0 mph4.8 kmh 29.70 in1005.8 mb 0.00 in0.0 mm 0.00 in/hr0.0 mm/hr 0.01 in0.3 mm
03:10 AM 49.7°F9.8°C 49.2°F9.6°C 100% 1.0 mph S1.6 kmh S 3.0 mph4.8 kmh 29.70 in1005.8 mb 0.00 in0.0 mm 0.00 in/hr0.0 mm/hr 0.01 in0.3 mm
03:05 AM 49.6°F9.8°C 49.1°F9.5°C 100% 1.0 mph S1.6 kmh S 3.0 mph4.8 kmh 29.70 in1005.8 mb 0.00 in0.0 mm 0.00 in/hr0.0 mm/hr 0.01 in0.3 mm
03:00 AM 49.6°F9.8°C 49.1°F9.5°C 100% Calm Calm 3.0 mph4.8 kmh 29.70 in1005.8 mb 0.00 in0.0 mm 0.00 in/hr0.0 mm/hr 0.01 in0.3 mm
02:55 AM 49.7°F9.8°C 49.2°F9.6°C 100% Calm Calm 2.0 mph3.2 kmh 29.69 in1005.4 mb 0.00 in0.0 mm 0.00 in/hr0.0 mm/hr 0.01 in0.3 mm
02:50 AM 49.6°F9.8°C 49.1°F9.5°C 100% Calm Calm 1.0 mph1.6 kmh 29.69 in1005.4 mb 0.00 in0.0 mm 0.00 in/hr0.0 mm/hr 0.01 in0.3 mm
02:45 AM 49.6°F9.8°C 49.1°F9.5°C 100% Calm Calm 1.0 mph1.6 kmh 29.69 in1005.4 mb 0.00 in0.0 mm 0.00 in/hr0.0 mm/hr 0.01 in0.3 mm
02:40 AM 49.7°F9.8°C 49.2°F9.6°C 100% Calm Calm 1.0 mph1.6 kmh 29.69 in1005.4 mb 0.00 in0.0 mm 0.00 in/hr0.0 mm/hr 0.01 in0.3 mm
02:35 AM 49.6°F9.8°C 49.1°F9.5°C 100% Calm Calm 2.0 mph3.2 kmh 29.69 in1005.4 mb 0.00 in0.0 mm 0.00 in/hr0.0 mm/hr 0.01 in0.3 mm
02:30 AM 49.6°F9.8°C 49.1°F9.5°C 100% Calm Calm 2.0 mph3.2 kmh 29.69 in1005.4 mb 0.00 in0.0 mm 0.00 in/hr0.0 mm/hr 0.01 in0.3 mm
02:25 AM 49.6°F9.8°C 49.1°F9.5°C 100% Calm Calm 2.0 mph3.2 kmh 29.69 in1005.4 mb 0.00 in0.0 mm 0.00 in/hr0.0 mm/hr 0.01 in0.3 mm
02:20 AM 49.6°F9.8°C 49.1°F9.5°C 100% Calm Calm 2.0 mph3.2 kmh 29.69 in1005.4 mb 0.00 in0.0 mm 0.00 in/hr0.0 mm/hr 0.01 in0.3 mm
02:15 AM 49.6°F9.8°C 49.1°F9.5°C 100% Calm Calm 2.0 mph3.2 kmh 29.69 in1005.4 mb 0.00 in0.0 mm 0.00 in/hr0.0 mm/hr 0.01 in0.3 mm
02:10 AM 49.5°F9.7°C 49.0°F9.4°C 100% Calm Calm 2.0 mph3.2 kmh 29.69 in1005.4 mb 0.00 in0.0 mm 0.00 in/hr0.0 mm/hr 0.01 in0.3 mm
02:05 AM 49.5°F9.7°C 49.0°F9.4°C 100% Calm Calm 2.0 mph3.2 kmh 29.69 in1005.4 mb 0.00 in0.0 mm 0.00 in/hr0.0 mm/hr 0.01 in0.3 mm
02:00 AM 49.5°F9.7°C 49.0°F9.4°C 100% Calm Calm 2.0 mph3.2 kmh 29.69 in1005.4 mb 0.00 in0.0 mm 0.00 in/hr0.0 mm/hr 0.01 in0.3 mm
01:55 AM 49.5°F9.7°C 49.0°F9.4°C 100% 1.0 mph S1.6 kmh S 2.0 mph3.2 kmh 29.69 in1005.4 mb 0.00 in0.0 mm 0.00 in/hr0.0 mm/hr 0.01 in0.3 mm
01:50 AM 49.5°F9.7°C 49.0°F9.4°C 100% 1.0 mph S1.6 kmh S 3.0 mph4.8 kmh 29.69 in1005.4 mb 0.00 in0.0 mm 0.00 in/hr0.0 mm/hr 0.01 in0.3 mm
01:45 AM 49.4°F9.7°C 48.9°F9.4°C 100% Calm Calm 3.0 mph4.8 kmh 29.69 in1005.4 mb 0.00 in0.0 mm 0.00 in/hr0.0 mm/hr 0.01 in0.3 mm
01:40 AM 49.4°F9.7°C 48.9°F9.4°C 100% 1.0 mph S1.6 kmh S 3.0 mph4.8 kmh 29.69 in1005.4 mb 0.00 in0.0 mm 0.00 in/hr0.0 mm/hr 0.01 in0.3 mm
01:35 AM 49.4°F9.7°C 48.9°F9.4°C 100% 1.0 mph S1.6 kmh S 4.0 mph6.4 kmh 29.69 in1005.4 mb 0.00 in0.0 mm 0.00 in/hr0.0 mm/hr 0.01 in0.3 mm
01:30 AM 49.3°F9.6°C 48.8°F9.3°C 100% 1.0 mph S1.6 kmh S 4.0 mph6.4 kmh 29.69 in1005.4 mb 0.00 in0.0 mm 0.00 in/hr0.0 mm/hr 0.01 in0.3 mm
01:25 AM 49.3°F9.6°C 48.8°F9.3°C 100% 1.0 mph S1.6 kmh S 4.0 mph6.4 kmh 29.69 in1005.4 mb 0.00 in0.0 mm 0.00 in/hr0.0 mm/hr 0.01 in0.3 mm
01:20 AM 49.2°F9.6°C 48.7°F9.3°C 100% 1.0 mph SSW1.6 kmh SSW 3.0 mph4.8 kmh 29.69 in1005.4 mb 0.00 in0.0 mm 0.00 in/hr0.0 mm/hr 0.01 in0.3 mm
01:15 AM 49.2°F9.6°C 48.7°F9.3°C 100% Calm Calm 2.0 mph3.2 kmh 29.69 in1005.4 mb 0.00 in0.0 mm 0.00 in/hr0.0 mm/hr 0.01 in0.3 mm
01:10 AM 49.2°F9.6°C 48.7°F9.3°C 100% Calm Calm 2.0 mph3.2 kmh 29.69 in1005.4 mb 0.00 in0.0 mm 0.00 in/hr0.0 mm/hr 0.01 in0.3 mm
01:05 AM 49.3°F9.6°C 48.8°F9.3°C 100% Calm Calm 2.0 mph3.2 kmh 29.69 in1005.4 mb 0.00 in0.0 mm 0.00 in/hr0.0 mm/hr 0.01 in0.3 mm
01:00 AM 49.3°F9.6°C 48.8°F9.3°C 100% 1.0 mph SSW1.6 kmh SSW 3.0 mph4.8 kmh 29.69 in1005.4 mb 0.00 in0.0 mm 0.00 in/hr0.0 mm/hr 0.01 in0.3 mm
12:55 AM 49.4°F9.7°C 48.9°F9.4°C 100% Calm Calm 3.0 mph4.8 kmh 29.69 in1005.4 mb 0.00 in0.0 mm 0.00 in/hr0.0 mm/hr 0.01 in0.3 mm
12:50 AM 49.4°F9.7°C 48.9°F9.4°C 100% Calm Calm 2.0 mph3.2 kmh 29.69 in1005.4 mb 0.00 in0.0 mm 0.00 in/hr0.0 mm/hr 0.01 in0.3 mm
12:45 AM 49.4°F9.7°C 48.6°F9.2°C 97% Calm Calm 2.0 mph3.2 kmh 29.69 in1005.4 mb 0.01 in0.3 mm 0.00 in/hr0.0 mm/hr 0.01 in0.3 mm
12:40 AM 49.4°F9.7°C 48.6°F9.2°C 97% 1.0 mph S1.6 kmh S 3.0 mph4.8 kmh 29.69 in1005.4 mb 0.01 in0.3 mm 0.00 in/hr0.0 mm/hr 0.01 in0.3 mm
12:35 AM 49.3°F9.6°C 48.5°F9.2°C 97% 1.0 mph S1.6 kmh S 3.0 mph4.8 kmh 29.69 in1005.4 mb 0.01 in0.3 mm 0.00 in/hr0.0 mm/hr 0.01 in0.3 mm
12:30 AM 49.3°F9.6°C 48.5°F9.2°C 97% Calm Calm 2.0 mph3.2 kmh 29.69 in1005.4 mb 0.01 in0.3 mm 0.00 in/hr0.0 mm/hr 0.01 in0.3 mm
12:25 AM 49.3°F9.6°C 48.5°F9.2°C 97% Calm Calm 3.0 mph4.8 kmh 29.69 in1005.4 mb 0.01 in0.3 mm 0.00 in/hr0.0 mm/hr 0.01 in0.3 mm
12:20 AM 49.2°F9.6°C 48.4°F9.1°C 97% 1.0 mph S1.6 kmh S 3.0 mph4.8 kmh 29.69 in1005.4 mb 0.01 in0.3 mm 0.00 in/hr0.0 mm/hr 0.01 in0.3 mm
12:15 AM 49.2°F9.6°C 48.4°F9.1°C 97% Calm Calm 2.0 mph3.2 kmh 29.69 in1005.4 mb 0.01 in0.3 mm 0.00 in/hr0.0 mm/hr 0.01 in0.3 mm
12:10 AM 49.2°F9.6°C 48.4°F9.1°C 97% Calm Calm 2.0 mph3.2 kmh 29.69 in1005.4 mb 0.01 in0.3 mm 0.00 in/hr0.0 mm/hr 0.01 in0.3 mm
12:05 AM 49.1°F9.5°C 48.3°F9.1°C 97% Calm Calm 1.0 mph1.6 kmh 29.69 in1005.4 mb 0.01 in0.3 mm 0.00 in/hr0.0 mm/hr 0.01 in0.3 mm
12:00 AM 49.1°F9.5°C 48.3°F9.1°C 97% Calm Calm 2.0 mph3.2 kmh 29.69 in1005.4 mb 0.01 in0.3 mm 0.00 in/hr0.0 mm/hr 0.01 in0.3 mm